createdAt,value
2022-08-08T00:00:52.784Z,12.12
2022-08-08T00:00:53.524Z,12.12
2022-08-08T00:02:03.659Z,12.12
2022-08-08T00:02:48.628Z,12.09
2022-08-08T00:03:47.236Z,12.02
2022-08-08T00:04:49.505Z,12.00
2022-08-08T00:06:02.880Z,11.94
2022-08-08T00:06:47.188Z,11.99
2022-08-08T00:07:47.709Z,11.95
2022-08-08T00:08:49.180Z,11.99
2022-08-08T00:09:47.293Z,11.94
2022-08-08T00:10:46.755Z,11.95
2022-08-08T00:12:07.171Z,11.97
2022-08-08T00:12:56.353Z,11.88
2022-08-08T00:14:15.789Z,11.91
2022-08-08T00:14:57.220Z,11.91
2022-08-08T00:15:57.213Z,11.97
2022-08-08T00:16:49.194Z,11.80
2022-08-08T00:18:02.384Z,11.90
2022-08-08T00:18:49.389Z,11.84
2022-08-08T00:19:51.382Z,11.80
2022-08-08T00:20:49.423Z,11.86
2022-08-08T00:21:48.167Z,11.75
2022-08-08T00:22:46.234Z,11.78
2022-08-08T00:23:47.870Z,11.84
2022-08-08T00:24:48.706Z,11.69
2022-08-08T00:25:51.691Z,11.75
2022-08-08T00:26:50.165Z,11.65
2022-08-08T00:27:44.915Z,11.73
2022-08-08T00:28:44.988Z,11.62
2022-08-08T00:29:46.986Z,11.70
2022-08-08T00:30:45.152Z,11.69
2022-08-08T00:32:28.946Z,11.66
2022-08-08T00:32:46.215Z,11.60
2022-08-08T00:34:17.476Z,11.68
2022-08-08T00:34:46.224Z,11.69
2022-08-08T00:35:48.873Z,11.66
2022-08-08T00:36:47.675Z,11.69
2022-08-08T00:38:01.239Z,11.65
2022-08-08T00:38:51.798Z,11.66
2022-08-08T00:41:09.199Z,11.65
2022-08-08T00:41:12.597Z,11.66
2022-08-08T00:42:08.266Z,11.70
2022-08-08T00:42:46.552Z,11.65
2022-08-08T00:43:59.057Z,11.59
2022-08-08T00:44:47.683Z,11.59
2022-08-08T00:45:48.149Z,11.54
2022-08-08T00:46:57.062Z,11.54
2022-08-08T00:48:05.343Z,11.54
2022-08-08T00:48:59.427Z,11.50
2022-08-08T00:49:58.528Z,11.62
2022-08-08T00:50:53.303Z,11.60
2022-08-08T00:51:46.848Z,11.54
2022-08-08T00:52:51.677Z,11.48
2022-08-08T00:53:57.112Z,11.52
2022-08-08T00:54:45.977Z,11.59
2022-08-08T00:55:53.112Z,11.57
2022-08-08T00:56:46.687Z,11.52
2022-08-08T00:57:48.571Z,11.59
2022-08-08T00:58:54.483Z,11.51
2022-08-08T00:59:46.826Z,11.55
2022-08-08T01:00:50.169Z,11.43
2022-08-08T01:01:48.522Z,11.43
2022-08-08T01:04:01.626Z,11.32
2022-08-08T01:04:02.546Z,11.41
2022-08-08T01:04:47.575Z,11.35
2022-08-08T01:05:59.397Z,11.35
2022-08-08T01:06:48.123Z,11.43
2022-08-08T01:07:55.942Z,11.30
2022-08-08T01:08:51.942Z,11.25
2022-08-08T01:09:48.645Z,11.26
2022-08-08T01:10:50.852Z,11.17
2022-08-08T01:11:48.426Z,11.19
2022-08-08T01:12:48.179Z,11.23
2022-08-08T01:13:52.866Z,11.11
2022-08-08T01:14:54.778Z,11.10
2022-08-08T01:15:53.472Z,11.14
2022-08-08T01:16:46.679Z,11.12
2022-08-08T01:17:53.752Z,11.15
2022-08-08T01:18:52.782Z,11.00
2022-08-08T01:20:01.512Z,11.10
2022-08-08T01:20:47.282Z,10.99
2022-08-08T01:22:11.790Z,10.97
2022-08-08T01:29:59.899Z,10.92
2022-08-08T01:30:55.959Z,10.82
2022-08-08T01:32:12.889Z,10.84
2022-08-08T01:32:57.742Z,10.86
2022-08-08T01:34:00.485Z,10.96
2022-08-08T01:34:56.850Z,11.08
2022-08-08T01:36:01.283Z,11.05
2022-08-08T01:36:57.339Z,11.02
2022-08-08T01:37:59.008Z,11.07
2022-08-08T01:38:56.781Z,10.97
2022-08-08T01:39:56.953Z,10.99
2022-08-08T01:40:57.965Z,11.00
2022-08-08T01:41:58.032Z,11.02
2022-08-08T01:42:57.306Z,10.76
2022-08-08T01:43:59.932Z,10.79
2022-08-08T02:02:41.564Z,10.60
2022-08-08T02:03:54.401Z,10.63
2022-08-08T02:04:35.440Z,10.59
2022-08-08T02:05:56.568Z,10.64
2022-08-08T02:06:41.003Z,10.82
2022-08-08T02:07:41.590Z,10.78
2022-08-08T02:08:36.541Z,10.86
2022-08-08T02:10:02.478Z,10.94
2022-08-08T02:10:37.301Z,10.79
2022-08-08T02:11:53.065Z,10.97
2022-08-08T02:12:36.523Z,10.94
2022-08-08T02:13:54.809Z,10.86
2022-08-08T02:14:56.017Z,10.86
2022-08-08T02:15:38.612Z,10.71
2022-08-08T02:16:35.475Z,10.59
2022-08-08T02:17:42.526Z,10.54
2022-08-08T02:18:36.490Z,10.60
2022-08-08T02:19:57.967Z,10.61
2022-08-08T02:21:02.102Z,10.46
2022-08-08T02:21:36.451Z,10.48
2022-08-08T02:22:52.331Z,10.48
2022-08-08T02:23:36.421Z,10.41
2022-08-08T02:24:35.394Z,10.42
2022-08-08T02:25:47.223Z,10.31
2022-08-08T02:26:36.403Z,10.30
2022-08-08T02:27:38.849Z,10.30
2022-08-08T02:28:36.403Z,10.19
2022-08-08T02:29:46.995Z,10.28
2022-08-08T02:30:36.382Z,10.20
2022-08-08T02:31:59.199Z,10.19
2022-08-08T02:32:36.532Z,10.25
2022-08-08T02:33:41.462Z,10.22
2022-08-08T02:34:36.399Z,10.17
2022-08-08T02:35:35.808Z,10.05
2022-08-08T02:36:36.315Z,10.12
2022-08-08T02:37:53.359Z,10.10
2022-08-08T02:38:36.285Z,10.15
2022-08-08T02:39:40.415Z,10.12
2022-08-08T02:40:36.375Z,10.05
2022-08-08T02:42:04.058Z,10.05
2022-08-08T02:42:41.735Z,10.12
2022-08-08T02:44:38.062Z,10.02
2022-08-08T02:44:56.463Z,10.02
2022-08-08T02:45:51.672Z,9.89
2022-08-08T02:46:36.297Z,9.95
2022-08-08T02:47:35.205Z,9.98
2022-08-08T02:48:36.211Z,9.83
2022-08-08T02:49:50.469Z,9.83
2022-08-08T02:50:36.237Z,9.87
2022-08-08T02:51:46.463Z,9.86
2022-08-08T02:52:38.785Z,9.83
2022-08-08T02:53:35.282Z,9.79
2022-08-08T02:54:35.156Z,9.80
2022-08-08T02:55:36.508Z,9.84
2022-08-08T02:56:35.199Z,9.83
2022-08-08T02:57:40.681Z,9.82
2022-08-08T02:58:36.929Z,9.82
2022-08-08T02:59:57.130Z,9.84
2022-08-08T03:00:36.198Z,9.91
2022-08-08T03:01:39.912Z,9.77
2022-08-08T03:02:36.775Z,9.95
2022-08-08T03:05:01.157Z,9.80
2022-08-08T03:05:04.802Z,9.92
2022-08-08T03:05:45.482Z,9.83
2022-08-08T03:06:36.072Z,9.89
2022-08-08T03:07:41.814Z,9.83
2022-08-08T03:08:36.107Z,9.92
2022-08-08T03:09:35.075Z,9.72
2022-08-08T03:10:36.932Z,9.66
2022-08-08T03:12:01.695Z,9.79
2022-08-08T03:13:01.119Z,9.69
2022-08-08T03:15:58.627Z,9.69
2022-08-08T03:15:59.845Z,9.62
2022-08-08T03:16:01.859Z,9.72
2022-08-08T03:16:37.220Z,9.68
2022-08-08T03:17:39.498Z,9.72
2022-08-08T03:18:34.974Z,9.72
2022-08-08T03:19:34.997Z,9.65
2022-08-08T03:20:34.975Z,9.64
2022-08-08T03:21:54.606Z,9.65
2022-08-08T03:22:38.651Z,9.62
2022-08-08T03:23:56.341Z,9.73
2022-08-08T03:24:35.966Z,9.62
2022-08-08T03:25:36.280Z,9.61
2022-08-08T03:26:42.599Z,9.58
2022-08-08T03:27:41.971Z,9.55
2022-08-08T03:28:35.947Z,9.55
2022-08-08T03:29:54.868Z,9.58
2022-08-08T03:30:35.904Z,9.46
2022-08-08T03:32:05.236Z,9.51
2022-08-08T03:32:35.884Z,9.56
2022-08-08T03:34:00.587Z,9.56
2022-08-08T03:34:37.770Z,9.54
2022-08-08T03:35:34.869Z,9.61
2022-08-08T03:36:34.888Z,9.46
2022-08-08T03:38:53.874Z,9.46
2022-08-08T03:38:57.781Z,9.46
2022-08-08T03:39:46.068Z,9.48
2022-08-08T03:40:37.016Z,9.43
2022-08-08T03:42:13.061Z,9.43
2022-08-08T03:42:35.899Z,9.44
2022-08-08T03:43:39.734Z,9.40
2022-08-08T03:44:35.768Z,9.43
2022-08-08T03:46:05.287Z,9.46
2022-08-08T04:02:12.748Z,8.94
2022-08-08T04:02:52.073Z,8.89
2022-08-08T04:03:58.640Z,8.89
2022-08-08T04:04:48.497Z,8.94
2022-08-08T04:05:50.086Z,9.04
2022-08-08T04:06:47.433Z,9.02
2022-08-08T04:07:47.433Z,9.10
2022-08-08T04:08:47.433Z,9.10
2022-08-08T04:10:00.411Z,9.14
2022-08-08T04:10:49.065Z,9.21
2022-08-08T04:11:58.699Z,9.26
2022-08-08T04:13:17.816Z,9.25
2022-08-08T04:14:17.285Z,9.32
2022-08-08T04:14:50.747Z,9.36
2022-08-08T04:15:54.420Z,9.36
2022-08-08T04:16:49.310Z,9.40
2022-08-08T04:17:58.851Z,9.43
2022-08-08T04:18:48.695Z,9.34
2022-08-08T04:19:47.343Z,9.37
2022-08-08T04:20:47.361Z,9.36
2022-08-08T04:21:47.346Z,9.39
2022-08-08T04:22:51.617Z,9.50
2022-08-08T04:24:05.233Z,9.46
2022-08-08T04:24:50.062Z,9.44
2022-08-08T04:25:47.347Z,9.66
2022-08-08T04:26:57.241Z,9.94
2022-08-08T04:28:35.562Z,10.30
2022-08-08T04:28:48.259Z,10.64
2022-08-08T04:29:55.294Z,11.05
2022-08-08T04:30:48.256Z,11.55
2022-08-08T04:31:59.854Z,11.83
2022-08-08T04:32:49.839Z,12.22
2022-08-08T04:33:47.231Z,12.35
2022-08-08T04:34:55.330Z,12.72
2022-08-08T04:35:50.785Z,13.04
2022-08-08T04:36:47.241Z,13.28
2022-08-08T04:37:47.193Z,13.35
2022-08-08T04:38:47.399Z,13.59
2022-08-08T04:40:03.928Z,13.65
2022-08-08T04:40:51.388Z,13.79
2022-08-08T04:41:48.167Z,13.89
2022-08-08T04:42:56.995Z,14.08
2022-08-08T04:43:53.941Z,14.35
2022-08-08T04:44:49.151Z,14.48
2022-08-08T04:45:47.205Z,14.59
2022-08-08T04:46:47.190Z,14.78
2022-08-08T04:47:48.122Z,15.10
2022-08-08T04:48:47.124Z,15.17
2022-08-08T04:50:00.415Z,15.46
2022-08-08T04:50:48.130Z,15.72
2022-08-08T04:51:54.895Z,15.98
2022-08-08T04:52:48.496Z,16.04
2022-08-08T04:54:36.619Z,16.10
2022-08-08T04:54:50.745Z,16.16
2022-08-08T04:55:56.272Z,16.20
2022-08-08T04:56:48.074Z,16.20
2022-08-08T04:57:47.100Z,16.23
2022-08-08T04:58:50.338Z,16.31
2022-08-08T04:59:47.039Z,16.41
2022-08-08T05:00:48.493Z,16.12
2022-08-08T05:01:48.634Z,16.02
2022-08-08T05:02:47.085Z,16.13
2022-08-08T05:04:10.768Z,16.68
2022-08-08T05:04:48.260Z,17.06
2022-08-08T05:06:53.576Z,17.51
2022-08-08T05:07:53.576Z,17.76
2022-08-08T05:08:54.728Z,17.49
2022-08-08T05:09:54.688Z,17.46
2022-08-08T05:10:54.687Z,17.82
2022-08-08T05:11:57.035Z,17.34
2022-08-08T05:13:01.888Z,16.86
2022-08-08T05:14:00.949Z,16.64
2022-08-08T05:14:55.645Z,16.39
2022-08-08T05:16:52.549Z,16.49
2022-08-08T05:17:01.451Z,16.79
2022-08-08T05:17:56.639Z,17.04
2022-08-08T05:18:55.200Z,17.16
2022-08-08T05:20:12.960Z,17.60
2022-08-08T05:20:55.616Z,17.89
2022-08-08T05:21:59.611Z,17.87
2022-08-08T05:22:55.583Z,17.51
2022-08-08T05:24:04.184Z,17.08
2022-08-08T05:24:55.595Z,16.66
2022-08-08T05:25:59.832Z,16.43
2022-08-08T05:26:56.573Z,16.35
2022-08-08T05:27:54.930Z,16.49
2022-08-08T05:28:57.371Z,16.97
2022-08-08T05:29:56.532Z,17.27
2022-08-08T05:30:54.589Z,17.29
2022-08-08T05:32:03.896Z,17.83
2022-08-08T05:32:55.521Z,18.50
2022-08-08T05:33:55.197Z,18.98
2022-08-08T05:34:54.552Z,19.54
2022-08-08T05:35:55.354Z,19.56
2022-08-08T05:36:56.465Z,19.73
2022-08-08T05:37:54.795Z,20.02
2022-08-08T05:38:54.471Z,19.81
2022-08-08T05:39:54.566Z,19.81
2022-08-08T05:40:57.906Z,20.19
2022-08-08T05:41:55.935Z,20.51
2022-08-08T05:42:54.440Z,20.66
2022-08-08T05:44:03.376Z,20.31
2022-08-08T05:44:57.347Z,20.02
2022-08-08T05:46:03.322Z,19.04
2022-08-08T05:46:55.398Z,18.19
2022-08-08T05:48:00.529Z,18.18
2022-08-08T05:48:55.451Z,17.80
2022-08-08T05:49:56.036Z,17.48
2022-08-08T05:50:58.688Z,17.34
2022-08-08T05:51:55.416Z,17.82
2022-08-08T05:52:54.359Z,18.16
2022-08-08T05:54:26.747Z,18.31
2022-08-08T05:55:01.007Z,18.56
2022-08-08T05:56:07.989Z,18.83
2022-08-08T05:56:55.398Z,19.26
2022-08-08T05:58:04.867Z,18.86
2022-08-08T05:58:58.044Z,18.53
2022-08-08T06:00:00.575Z,18.28
2022-08-08T06:00:57.060Z,18.19
2022-08-08T06:01:57.257Z,18.25
2022-08-08T06:02:54.338Z,18.31
2022-08-08T06:03:55.576Z,18.71
2022-08-08T06:04:54.859Z,18.95
2022-08-08T06:05:56.797Z,19.09
2022-08-08T06:06:56.688Z,19.64
2022-08-08T06:08:02.655Z,19.51
2022-08-08T06:09:00.446Z,20.09
2022-08-08T06:10:00.831Z,20.34
2022-08-08T06:10:55.215Z,20.25
2022-08-08T06:11:55.220Z,20.31
2022-08-08T06:12:54.392Z,20.58
2022-08-08T06:13:58.393Z,20.65
2022-08-08T06:14:57.789Z,20.82
2022-08-08T06:15:56.274Z,21.50
2022-08-08T06:16:54.293Z,22.04
2022-08-08T06:18:18.450Z,22.35
2022-08-08T06:18:55.382Z,22.57
2022-08-08T06:19:54.257Z,22.55
2022-08-08T06:20:56.270Z,22.36
2022-08-08T06:21:56.682Z,22.60
2022-08-08T06:22:56.328Z,22.98
2022-08-08T06:24:03.638Z,23.41
2022-08-08T06:24:55.139Z,23.62
2022-08-08T06:26:35.674Z,22.73
2022-08-08T06:26:55.124Z,22.28
2022-08-08T06:27:54.104Z,22.08
2022-08-08T06:28:54.369Z,22.32
2022-08-08T06:30:00.197Z,22.78
2022-08-08T06:30:55.133Z,22.87
2022-08-08T06:32:09.943Z,23.08
2022-08-08T06:32:55.059Z,22.99
2022-08-08T06:34:26.474Z,22.35
2022-08-08T06:35:11.591Z,22.41
2022-08-08T06:36:07.037Z,21.54
2022-08-08T06:36:55.032Z,21.17
2022-08-08T06:37:55.760Z,21.07
2022-08-08T06:38:54.027Z,22.13
2022-08-08T06:39:55.949Z,22.11
2022-08-08T06:40:54.740Z,22.13
2022-08-08T06:41:54.040Z,21.93
2022-08-08T06:42:54.057Z,21.55
2022-08-08T06:43:57.518Z,22.13
2022-08-08T06:44:53.993Z,22.41
2022-08-08T06:45:54.023Z,22.76
2022-08-08T06:46:54.018Z,23.17
2022-08-08T06:48:01.426Z,22.98
2022-08-08T06:48:54.939Z,22.80
2022-08-08T06:49:55.757Z,21.95
2022-08-08T06:51:04.293Z,21.61
2022-08-08T06:51:58.213Z,21.48
2022-08-08T06:52:53.974Z,22.23
2022-08-08T06:53:56.127Z,23.20
2022-08-08T06:55:05.978Z,23.18
2022-08-08T06:56:02.308Z,23.28
2022-08-08T06:56:54.929Z,24.03
2022-08-08T06:57:56.439Z,24.21
2022-08-08T06:58:57.531Z,24.77
2022-08-08T07:00:13.022Z,25.78
2022-08-08T07:00:54.747Z,25.91
2022-08-08T07:02:21.275Z,26.45
2022-08-08T07:02:55.947Z,26.56
2022-08-08T07:04:40.653Z,26.83
2022-08-08T07:04:54.920Z,25.59
2022-08-08T07:06:01.663Z,24.02
2022-08-08T07:06:54.830Z,23.25
2022-08-08T07:07:55.338Z,22.57
2022-08-08T07:08:54.849Z,22.14
2022-08-08T07:10:00.021Z,22.80
2022-08-08T07:10:54.804Z,23.61
2022-08-08T07:11:53.944Z,24.05
2022-08-08T07:12:53.788Z,23.87
2022-08-08T07:14:00.593Z,23.13
2022-08-08T07:14:54.823Z,23.17
2022-08-08T07:16:10.025Z,23.12
2022-08-08T07:16:54.792Z,23.09
2022-08-08T07:18:34.449Z,23.50
2022-08-08T07:18:58.124Z,23.98
2022-08-08T07:19:59.955Z,24.13
2022-08-08T07:20:54.766Z,23.88
2022-08-08T07:21:53.765Z,23.55
2022-08-08T07:22:55.533Z,23.77
2022-08-08T07:24:01.198Z,23.47
2022-08-08T07:24:54.712Z,23.17
2022-08-08T07:25:55.596Z,23.02
2022-08-08T07:26:53.708Z,23.15
2022-08-08T07:28:02.145Z,22.94
2022-08-08T07:28:56.416Z,22.45
2022-08-08T07:29:59.610Z,23.03
2022-08-08T07:30:54.801Z,23.74
2022-08-08T07:31:53.710Z,24.20
2022-08-08T07:32:53.647Z,24.21
2022-08-08T07:33:59.683Z,23.48
2022-08-08T07:35:00.618Z,23.61
2022-08-08T07:35:54.639Z,23.56
2022-08-08T07:36:53.671Z,23.99
2022-08-08T07:38:04.293Z,23.91
2022-08-08T07:38:54.639Z,24.40
2022-08-08T07:39:57.806Z,24.26
2022-08-08T07:40:54.600Z,24.18
2022-08-08T07:42:04.562Z,24.06
2022-08-08T07:42:54.613Z,23.84
2022-08-08T07:43:54.338Z,24.26
2022-08-08T07:44:53.563Z,23.87
2022-08-08T07:46:23.136Z,23.84
2022-08-08T07:46:54.552Z,23.71
2022-08-08T07:47:53.587Z,23.69
2022-08-08T07:48:53.744Z,23.76
2022-08-08T07:49:53.543Z,23.47
2022-08-08T07:50:53.536Z,23.61
2022-08-08T07:51:54.112Z,23.96
2022-08-08T07:52:53.530Z,24.20
2022-08-08T07:54:01.999Z,24.40
2022-08-08T07:54:54.492Z,23.78
2022-08-08T07:55:53.501Z,23.25
2022-08-08T07:56:53.490Z,24.14
2022-08-08T07:57:53.529Z,24.38
2022-08-08T07:58:53.475Z,24.73
2022-08-08T07:59:53.458Z,24.69
2022-08-08T08:00:53.582Z,25.47
2022-08-08T08:02:36.712Z,25.59
2022-08-08T08:02:54.529Z,25.25
2022-08-08T08:03:53.604Z,25.53
2022-08-08T08:04:53.445Z,26.09
2022-08-08T08:05:53.923Z,25.53
2022-08-08T08:06:53.432Z,25.29
2022-08-08T08:07:57.279Z,25.14
2022-08-08T08:08:54.389Z,24.92
2022-08-08T08:09:55.512Z,25.38
2022-08-08T08:10:53.406Z,25.32
2022-08-08T08:11:53.803Z,25.72
2022-08-08T08:12:53.510Z,25.83
2022-08-08T08:14:08.328Z,25.55
2022-08-08T08:14:54.398Z,25.90
2022-08-08T08:15:54.276Z,26.47
2022-08-08T08:16:53.337Z,26.51
2022-08-08T08:17:56.565Z,26.10
2022-08-08T08:18:56.122Z,25.93
2022-08-08T08:19:55.742Z,26.18
2022-08-08T08:20:53.343Z,26.44
2022-08-08T08:21:58.431Z,26.19
2022-08-08T08:22:58.411Z,26.26
2022-08-08T08:23:53.290Z,26.16
2022-08-08T08:24:54.300Z,26.26
2022-08-08T08:25:58.253Z,26.18
2022-08-08T08:26:55.305Z,26.43
2022-08-08T08:27:53.266Z,26.84
2022-08-08T08:28:55.936Z,26.29
2022-08-08T08:29:53.446Z,25.59
2022-08-08T08:30:53.276Z,25.26
2022-08-08T08:31:57.371Z,25.60
2022-08-08T08:32:54.398Z,25.53
2022-08-08T08:33:53.248Z,25.44
2022-08-08T08:34:56.789Z,25.69
2022-08-08T08:36:19.381Z,25.78
2022-08-08T08:36:54.788Z,25.40
2022-08-08T08:38:15.857Z,26.03
2022-08-08T08:38:55.199Z,26.52
2022-08-08T08:40:00.875Z,26.05
2022-08-08T08:40:56.863Z,26.41
2022-08-08T08:41:53.168Z,26.36
2022-08-08T08:42:53.229Z,25.95
2022-08-08T08:43:53.154Z,26.22
2022-08-08T08:44:54.155Z,25.65
2022-08-08T08:45:57.130Z,25.88
2022-08-08T08:46:58.757Z,25.87
2022-08-08T08:47:58.707Z,26.13
2022-08-08T08:48:53.149Z,25.58
2022-08-08T08:49:59.788Z,25.43
2022-08-08T08:50:55.433Z,25.95
2022-08-08T08:51:56.297Z,26.23
2022-08-08T08:52:59.860Z,25.60
2022-08-08T08:54:00.872Z,26.18
2022-08-08T08:54:56.820Z,26.36
2022-08-08T08:55:53.920Z,26.56
2022-08-08T08:56:55.817Z,26.62
2022-08-08T08:58:25.982Z,27.05
2022-08-08T08:58:53.017Z,26.73
2022-08-08T08:59:58.603Z,27.47
2022-08-08T09:01:08.771Z,28.01
2022-08-08T09:01:55.912Z,27.54
2022-08-08T09:03:45.482Z,26.99
2022-08-08T09:03:54.829Z,26.78
2022-08-08T09:04:54.937Z,27.14
2022-08-08T09:05:54.840Z,27.90
2022-08-08T09:06:52.994Z,28.37
2022-08-08T09:08:12.168Z,28.29
2022-08-08T09:08:53.980Z,28.08
2022-08-08T09:09:55.078Z,27.70
2022-08-08T09:10:52.949Z,27.44
2022-08-08T09:12:06.101Z,27.77
2022-08-08T09:12:53.944Z,28.08
2022-08-08T09:13:53.632Z,28.08
2022-08-08T09:14:52.930Z,28.48
2022-08-08T09:15:52.928Z,28.62
2022-08-08T09:16:53.928Z,29.07
2022-08-08T09:17:56.002Z,28.78
2022-08-08T09:18:53.762Z,28.38
2022-08-08T09:21:58.981Z,28.01
2022-08-08T09:22:00.859Z,27.51
2022-08-08T09:22:05.896Z,28.76
2022-08-08T09:22:58.403Z,28.44
2022-08-08T09:23:54.858Z,28.07
2022-08-08T09:24:53.888Z,28.10
2022-08-08T09:26:01.985Z,28.26
2022-08-08T09:26:53.852Z,28.76
2022-08-08T09:27:58.072Z,29.14
2022-08-08T09:28:53.859Z,28.75
2022-08-08T09:29:52.963Z,28.12
2022-08-08T09:30:52.821Z,27.65
2022-08-08T09:31:55.940Z,27.14
2022-08-08T09:33:12.458Z,28.12
2022-08-08T09:34:30.587Z,28.62
2022-08-08T09:34:53.818Z,29.10
2022-08-08T09:35:52.785Z,29.44
2022-08-08T09:37:46.314Z,29.19
2022-08-08T09:38:00.826Z,29.24
2022-08-08T09:38:54.215Z,29.44
2022-08-08T09:39:52.903Z,28.88
2022-08-08T09:40:57.462Z,28.10
2022-08-08T09:42:15.180Z,28.29
2022-08-08T09:42:53.724Z,28.89
2022-08-08T09:44:05.303Z,29.26
2022-08-08T09:44:54.560Z,29.23
2022-08-08T09:45:55.057Z,29.23
2022-08-08T09:46:57.425Z,29.14
2022-08-08T09:48:09.694Z,29.14
2022-08-08T09:48:53.745Z,29.22
2022-08-08T09:49:52.706Z,29.39
2022-08-08T09:50:54.968Z,29.53
2022-08-08T09:52:07.419Z,29.38
2022-08-08T09:52:59.434Z,29.47
2022-08-08T09:54:06.902Z,29.57
2022-08-08T09:54:53.663Z,28.84
2022-08-08T09:56:04.115Z,27.98
2022-08-08T09:56:53.630Z,28.15
2022-08-08T09:57:55.901Z,28.78
2022-08-08T09:58:52.606Z,29.71
2022-08-08T10:00:29.937Z,30.43
2022-08-08T10:00:56.932Z,30.54
2022-08-08T10:01:59.505Z,30.30
2022-08-08T10:02:54.441Z,30.46
2022-08-08T10:03:55.808Z,30.80
2022-08-08T10:04:52.830Z,27.85
2022-08-08T10:05:52.642Z,27.54
2022-08-08T10:06:52.806Z,27.98
2022-08-08T10:07:59.949Z,28.20
2022-08-08T10:08:53.578Z,29.08
2022-08-08T10:09:59.478Z,29.73
2022-08-08T10:10:53.547Z,29.63
2022-08-08T10:12:27.834Z,28.82
2022-08-08T10:13:30.049Z,28.54
2022-08-08T10:13:57.474Z,28.29
2022-08-08T10:14:52.500Z,28.37
2022-08-08T10:16:00.547Z,28.88
2022-08-08T10:16:53.512Z,29.22
2022-08-08T10:18:06.503Z,29.59
2022-08-08T10:18:55.470Z,29.56
2022-08-08T10:19:58.311Z,29.47
2022-08-08T10:21:00.608Z,29.73
2022-08-08T10:21:53.475Z,29.63
2022-08-08T10:22:52.454Z,30.21
2022-08-08T10:23:58.246Z,30.87
2022-08-08T10:24:54.438Z,31.29
2022-08-08T10:25:57.015Z,31.21
2022-08-08T10:26:59.528Z,30.02
2022-08-08T10:27:53.432Z,30.23
2022-08-08T10:28:53.893Z,30.62
2022-08-08T10:29:58.384Z,30.77
2022-08-08T10:30:59.717Z,30.40
2022-08-08T10:31:53.397Z,30.37
2022-08-08T10:32:53.301Z,30.55
2022-08-08T10:34:19.010Z,30.62
2022-08-08T10:35:00.299Z,30.18
2022-08-08T10:36:08.622Z,30.34
2022-08-08T10:36:53.333Z,30.00
2022-08-08T10:37:52.338Z,30.05
2022-08-08T10:38:52.358Z,30.21
2022-08-08T10:39:54.055Z,29.72
2022-08-08T10:40:53.278Z,30.12
2022-08-08T10:41:58.864Z,30.09
2022-08-08T10:42:53.305Z,29.38
2022-08-08T10:43:52.876Z,28.67
2022-08-08T10:44:52.326Z,28.20
2022-08-08T10:45:57.112Z,27.82
2022-08-08T10:46:53.310Z,27.89
2022-08-08T10:47:55.189Z,27.89
2022-08-08T10:48:57.103Z,28.74
2022-08-08T10:50:01.369Z,29.10
2022-08-08T10:50:53.304Z,29.24
2022-08-08T10:51:52.994Z,28.69
2022-08-08T10:52:52.261Z,28.70
2022-08-08T10:53:56.642Z,29.01
2022-08-08T10:54:53.237Z,29.34
2022-08-08T10:55:52.232Z,29.56
2022-08-08T10:56:52.204Z,30.06
2022-08-08T10:57:53.247Z,30.44
2022-08-08T10:58:54.889Z,30.39
2022-08-08T10:59:52.214Z,29.98
2022-08-08T11:01:01.856Z,29.50
2022-08-08T11:01:54.958Z,29.81
2022-08-08T11:02:52.181Z,30.02
2022-08-08T11:04:00.716Z,30.21
2022-08-08T11:04:54.105Z,30.53
2022-08-08T11:06:00.382Z,30.24
2022-08-08T11:06:53.239Z,30.55
2022-08-08T11:08:37.869Z,30.40
2022-08-08T11:08:53.929Z,30.10
2022-08-08T11:09:52.143Z,29.69
2022-08-08T11:10:52.113Z,29.69
2022-08-08T11:12:05.024Z,29.54
2022-08-08T11:13:06.669Z,28.72
2022-08-08T11:13:59.816Z,28.88
2022-08-08T11:14:53.089Z,28.79
2022-08-08T11:15:59.027Z,29.34
2022-08-08T11:16:53.100Z,29.34
2022-08-08T11:17:58.195Z,29.68
2022-08-08T11:18:53.090Z,29.66
2022-08-08T11:19:52.860Z,29.22
2022-08-08T11:20:52.266Z,29.19
2022-08-08T11:21:55.213Z,28.93
2022-08-08T11:22:52.890Z,28.57
2022-08-08T11:24:02.125Z,28.93
2022-08-08T11:24:53.042Z,29.42
2022-08-08T11:25:57.398Z,29.57
2022-08-08T11:26:56.488Z,29.27
2022-08-08T11:27:52.017Z,29.61
2022-08-08T11:28:51.993Z,30.13
2022-08-08T11:30:20.522Z,30.35
2022-08-08T11:30:53.101Z,30.32
2022-08-08T11:31:52.015Z,30.48
2022-08-08T11:32:52.962Z,30.66
2022-08-08T11:33:59.501Z,30.25
2022-08-08T11:35:08.876Z,29.31
2022-08-08T11:35:53.970Z,28.47
2022-08-08T11:36:51.937Z,28.64
2022-08-08T11:38:39.056Z,28.84
2022-08-08T11:38:54.963Z,28.82
2022-08-08T11:39:57.351Z,28.81
2022-08-08T11:40:53.084Z,28.98
2022-08-08T11:41:52.943Z,29.34
2022-08-08T11:42:51.904Z,30.09
2022-08-08T11:43:51.924Z,30.47
2022-08-08T11:44:51.931Z,30.96
2022-08-08T11:46:10.005Z,31.02
2022-08-08T11:46:54.346Z,31.06
2022-08-08T11:48:02.796Z,31.05
2022-08-08T11:48:52.919Z,31.02
2022-08-08T11:49:51.849Z,31.29
2022-08-08T11:50:52.546Z,30.78
2022-08-08T11:51:52.451Z,29.98
2022-08-08T11:52:51.880Z,29.75
2022-08-08T11:53:59.123Z,29.69
2022-08-08T11:54:52.847Z,29.81
2022-08-08T11:55:51.816Z,29.38
2022-08-08T11:56:56.450Z,28.52
2022-08-08T11:57:54.927Z,28.98
2022-08-08T11:58:54.914Z,29.75
2022-08-08T12:00:00.613Z,30.35
2022-08-08T12:00:53.547Z,30.16
2022-08-08T12:01:51.784Z,28.76
2022-08-08T12:02:52.814Z,28.52
2022-08-08T12:03:54.955Z,28.75
2022-08-08T12:04:52.773Z,28.49
2022-08-08T12:05:51.762Z,28.72
2022-08-08T12:06:51.731Z,29.26
2022-08-08T12:07:51.994Z,29.47
2022-08-08T12:08:51.743Z,29.72
2022-08-08T12:09:59.511Z,29.95
2022-08-08T12:10:52.705Z,30.06
2022-08-08T12:11:51.701Z,30.10
2022-08-08T12:12:54.577Z,29.66
2022-08-08T12:14:03.830Z,29.36
2022-08-08T12:14:54.703Z,29.36
2022-08-08T12:15:51.679Z,28.85
2022-08-08T12:16:51.718Z,28.98
2022-08-08T12:17:52.473Z,29.45
2022-08-08T12:18:51.665Z,29.97
2022-08-08T12:19:54.011Z,30.25
2022-08-08T12:20:53.307Z,30.90
2022-08-08T12:22:00.267Z,31.07
2022-08-08T12:22:53.192Z,30.94
2022-08-08T12:24:00.185Z,30.91
2022-08-08T12:24:56.195Z,30.97
2022-08-08T12:25:52.809Z,31.06
2022-08-08T12:26:51.596Z,30.94
2022-08-08T12:27:52.589Z,31.07
2022-08-08T12:28:52.589Z,30.65
2022-08-08T12:29:51.617Z,30.44
2022-08-08T12:30:51.605Z,30.47
2022-08-08T12:31:53.143Z,30.46
2022-08-08T12:32:51.555Z,30.13
2022-08-08T12:34:02.151Z,30.48
2022-08-08T12:34:53.853Z,30.59
2022-08-08T12:35:53.239Z,30.68
2022-08-08T12:36:51.546Z,30.69
2022-08-08T12:38:02.758Z,30.83
2022-08-08T12:38:55.527Z,30.44
2022-08-08T12:40:01.898Z,29.91
2022-08-08T12:40:56.536Z,29.87
2022-08-08T12:41:57.277Z,29.88
2022-08-08T12:42:52.545Z,30.08
2022-08-08T12:43:59.957Z,29.60
2022-08-08T12:44:52.480Z,29.44
2022-08-08T12:46:00.097Z,29.42
2022-08-08T12:46:54.999Z,29.50
2022-08-08T12:48:04.988Z,29.65
2022-08-08T12:49:20.698Z,30.08
2022-08-08T12:49:53.486Z,30.28
2022-08-08T12:50:51.461Z,30.21
2022-08-08T12:51:58.516Z,30.12
2022-08-08T12:52:52.465Z,30.37
2022-08-08T12:53:51.413Z,30.16
2022-08-08T12:54:51.416Z,30.16
2022-08-08T12:56:18.370Z,30.16
2022-08-08T12:56:53.407Z,30.12
2022-08-08T12:57:56.810Z,30.09
2022-08-08T12:58:54.453Z,30.13
2022-08-08T13:00:04.444Z,29.76
2022-08-08T13:00:52.398Z,29.76
2022-08-08T13:01:51.491Z,28.96
2022-08-08T13:02:53.162Z,28.98
2022-08-08T13:03:52.090Z,28.86
2022-08-08T13:04:51.455Z,29.16
2022-08-08T13:06:04.387Z,29.42
2022-08-08T13:06:52.353Z,29.61
2022-08-08T13:08:03.580Z,30.06
2022-08-08T13:08:53.524Z,30.19
2022-08-08T13:10:05.339Z,30.03
2022-08-08T13:10:56.893Z,30.02
2022-08-08T13:12:24.507Z,30.00
2022-08-08T13:12:52.299Z,30.05
2022-08-08T13:13:51.328Z,29.94
2022-08-08T13:14:52.922Z,30.09
2022-08-08T13:15:54.741Z,30.43
2022-08-08T13:16:51.274Z,30.97
2022-08-08T13:18:08.480Z,30.75
2022-08-08T13:18:57.365Z,29.94
2022-08-08T13:20:06.733Z,28.89
2022-08-08T13:20:52.364Z,28.93
2022-08-08T13:21:58.389Z,28.52
2022-08-08T13:23:26.926Z,28.14
2022-08-08T13:23:52.222Z,28.62
2022-08-08T13:24:51.239Z,29.13
2022-08-08T13:25:59.375Z,29.14
2022-08-08T13:26:54.965Z,28.85
2022-08-08T13:27:51.505Z,28.96
2022-08-08T13:28:51.187Z,29.32
2022-08-08T13:29:51.189Z,29.56
2022-08-08T13:30:51.377Z,29.22
2022-08-08T13:31:51.216Z,29.27
2022-08-08T13:32:51.161Z,29.38
2022-08-08T13:33:51.162Z,29.72
2022-08-08T13:34:52.414Z,29.59
2022-08-08T13:35:51.204Z,29.71